createdAt,value
2017-09-25T00:00:45.117Z,87.17
2017-09-25T00:03:13.464Z,86.97
2017-09-25T00:05:41.800Z,87.21
2017-09-25T00:08:10.161Z,87.71
2017-09-25T00:10:39.267Z,87.72
2017-09-25T00:13:08.371Z,87.56
2017-09-25T00:15:36.706Z,87.94
2017-09-25T00:18:05.028Z,88.38
2017-09-25T00:20:33.355Z,88.53
2017-09-25T00:23:01.684Z,88.07
2017-09-25T00:25:30.019Z,87.86
2017-09-25T00:27:58.341Z,87.96
2017-09-25T00:30:27.452Z,88.44
2017-09-25T00:32:55.782Z,87.63
2017-09-25T00:35:24.091Z,86.59
2017-09-25T00:37:53.191Z,86.63
2017-09-25T00:40:21.499Z,87.45
2017-09-25T00:42:49.829Z,87.35
2017-09-25T00:45:18.260Z,86.75
2017-09-25T00:47:46.582Z,86.77
2017-09-25T00:50:14.931Z,87.45
2017-09-25T00:53:01.167Z,88.06
2017-09-25T00:58:33.125Z,86.95
2017-09-25T01:01:12.682Z,86.97
2017-09-25T01:03:53.614Z,87.56
2017-09-25T01:06:26.639Z,87.78
2017-09-25T01:08:54.984Z,88.08
2017-09-25T01:11:23.738Z,87.66
2017-09-25T01:13:52.812Z,87.73
2017-09-25T01:16:21.150Z,87.05
2017-09-25T01:18:49.457Z,86.98
2017-09-25T01:21:18.171Z,87.62
2017-09-25T01:23:47.271Z,88.12
2017-09-25T01:26:16.793Z,87.43
2017-09-25T01:28:45.887Z,86.79
2017-09-25T01:31:15.025Z,87.28
2017-09-25T01:33:43.627Z,87.19
2017-09-25T01:36:12.054Z,87.55
2017-09-25T01:38:40.382Z,87.79
2017-09-25T01:41:08.744Z,88.39
2017-09-25T01:43:37.964Z,87.62
2017-09-25T01:46:06.322Z,87.51
2017-09-25T01:48:35.967Z,87.95
2017-09-25T01:51:05.230Z,87.87
2017-09-25T01:53:33.601Z,88.33
2017-09-25T01:56:01.924Z,88.40
2017-09-25T01:58:30.684Z,88.03
2017-09-25T02:00:59.014Z,88.28
2017-09-25T02:03:28.112Z,87.55
2017-09-25T02:05:59.192Z,87.74
2017-09-25T02:08:27.547Z,88.15
2017-09-25T02:10:56.950Z,88.16
2017-09-25T02:13:25.269Z,87.85
2017-09-25T02:15:53.593Z,87.84
2017-09-25T02:18:22.695Z,88.21
2017-09-25T02:20:51.071Z,88.25
2017-09-25T02:23:19.402Z,88.55
2017-09-25T02:25:47.729Z,88.71
2017-09-25T02:28:17.363Z,88.53
2017-09-25T02:30:45.743Z,87.19
2017-09-25T02:33:14.065Z,86.75
2017-09-25T02:35:42.886Z,87.18
2017-09-25T02:38:11.217Z,87.59
2017-09-25T02:40:39.533Z,87.87
2017-09-25T02:43:08.740Z,87.76
2017-09-25T02:45:37.070Z,87.58
2017-09-25T02:48:05.709Z,87.18
2017-09-25T02:50:34.025Z,88.03
2017-09-25T02:53:02.374Z,88.16
2017-09-25T02:55:31.486Z,87.45
2017-09-25T02:57:59.802Z,87.98
2017-09-25T03:00:28.238Z,88.56
2017-09-25T03:02:56.550Z,88.40
2017-09-25T03:05:24.879Z,88.67
2017-09-25T03:07:53.974Z,88.15
2017-09-25T03:10:22.321Z,87.93
2017-09-25T03:12:50.692Z,87.94
2017-09-25T03:15:19.011Z,88.16
2017-09-25T03:17:47.343Z,88.58
2017-09-25T03:20:15.688Z,88.44
2017-09-25T03:22:44.021Z,87.72
2017-09-25T03:25:12.345Z,87.14
2017-09-25T03:27:41.520Z,86.83
2017-09-25T03:30:10.223Z,86.60
2017-09-25T03:32:39.322Z,86.53
2017-09-25T03:35:07.664Z,86.46
2017-09-25T03:37:35.978Z,86.39
2017-09-25T03:40:05.078Z,86.46
2017-09-25T03:42:33.425Z,86.51
2017-09-25T03:45:01.751Z,86.53
2017-09-25T03:47:30.096Z,86.55
2017-09-25T03:49:58.504Z,86.45
2017-09-25T03:52:26.895Z,86.47
2017-09-25T03:54:55.218Z,86.50
2017-09-25T03:57:23.542Z,86.83
2017-09-25T03:59:51.866Z,86.92
2017-09-25T04:02:20.192Z,86.99
2017-09-25T04:04:48.536Z,86.95
2017-09-25T04:07:16.892Z,86.77
2017-09-25T04:09:45.643Z,86.75
2017-09-25T04:12:13.985Z,86.54
2017-09-25T04:14:42.303Z,86.55
2017-09-25T04:17:10.631Z,86.57
2017-09-25T04:19:38.950Z,86.31
2017-09-25T04:22:07.285Z,86.51
2017-09-25T04:24:35.594Z,86.77
2017-09-25T04:27:05.212Z,86.86
2017-09-25T04:29:34.305Z,87.10
2017-09-25T04:32:02.633Z,86.79
2017-09-25T04:34:30.973Z,86.91
2017-09-25T04:36:59.322Z,86.75
2017-09-25T04:39:27.664Z,86.66
2017-09-25T04:41:55.986Z,87.15
2017-09-25T04:44:24.347Z,87.94
2017-09-25T04:46:52.667Z,88.12
2017-09-25T04:49:21.212Z,88.40
2017-09-25T04:51:49.565Z,87.88
2017-09-25T04:54:17.889Z,88.35
2017-09-25T04:56:46.233Z,88.34
2017-09-25T04:59:15.590Z,88.76
2017-09-25T05:01:44.692Z,89.16
2017-09-25T05:04:13.081Z,89.05
2017-09-25T05:06:41.430Z,88.06
2017-09-25T05:09:09.771Z,88.27
2017-09-25T05:11:38.146Z,88.20
2017-09-25T05:14:06.489Z,87.91
2017-09-25T05:16:35.579Z,87.80
2017-09-25T05:19:03.929Z,87.50
2017-09-25T05:21:32.297Z,87.84
2017-09-25T05:24:00.635Z,88.01
2017-09-25T05:26:28.982Z,88.38
2017-09-25T05:28:57.305Z,88.43
2017-09-25T05:31:25.636Z,88.34
2017-09-25T05:33:53.966Z,88.31
2017-09-25T05:36:22.379Z,88.82
2017-09-25T05:38:50.729Z,89.10
2017-09-25T05:41:19.057Z,88.74
2017-09-25T05:43:47.417Z,89.06
2017-09-25T05:46:15.754Z,88.80
2017-09-25T05:48:44.108Z,89.15
2017-09-25T05:51:13.201Z,89.21
2017-09-25T05:53:41.869Z,88.84
2017-09-25T05:56:10.214Z,89.25
2017-09-25T05:58:38.529Z,89.12
2017-09-25T06:01:06.877Z,88.90
2017-09-25T06:03:35.191Z,89.06
2017-09-25T06:06:03.541Z,89.19
2017-09-25T06:08:32.376Z,89.75
2017-09-25T06:11:01.759Z,89.34
2017-09-25T06:13:30.107Z,89.78
2017-09-25T06:15:58.437Z,89.79
2017-09-25T06:18:27.559Z,89.60
2017-09-25T06:20:55.885Z,89.62
2017-09-25T06:23:24.232Z,89.87
2017-09-25T06:25:52.591Z,89.79
2017-09-25T06:28:20.995Z,89.70
2017-09-25T06:30:49.320Z,89.58
2017-09-25T06:33:18.468Z,89.13
2017-09-25T06:35:46.821Z,88.81
2017-09-25T06:38:15.154Z,89.06
2017-09-25T06:40:43.502Z,89.71
2017-09-25T06:43:11.838Z,89.56
2017-09-25T06:45:40.192Z,89.75
2017-09-25T06:48:08.512Z,90.20
2017-09-25T06:50:36.858Z,89.88
2017-09-25T06:53:05.234Z,89.74
2017-09-25T06:55:34.369Z,90.13
2017-09-25T06:58:03.492Z,90.54
2017-09-25T07:00:31.818Z,90.39
2017-09-25T07:03:00.165Z,90.46
2017-09-25T07:05:28.522Z,90.20
2017-09-25T07:07:56.933Z,90.26
2017-09-25T07:10:26.216Z,89.98
2017-09-25T07:12:54.557Z,90.07
2017-09-25T07:15:23.962Z,90.48
2017-09-25T07:17:52.307Z,90.49
2017-09-25T07:20:20.661Z,90.50
2017-09-25T07:22:48.996Z,90.35
2017-09-25T07:25:18.096Z,90.18
2017-09-25T07:27:46.467Z,90.27
2017-09-25T07:30:14.812Z,89.76
2017-09-25T07:32:43.163Z,89.63
2017-09-25T07:35:11.498Z,90.32
2017-09-25T07:37:39.943Z,90.83
2017-09-25T07:40:08.300Z,91.02
2017-09-25T07:42:36.652Z,91.20
2017-09-25T07:45:05.760Z,91.83
2017-09-25T07:47:34.092Z,91.82
2017-09-25T07:50:02.451Z,91.64
2017-09-25T07:52:30.813Z,91.91
2017-09-25T07:54:59.547Z,91.94
2017-09-25T07:57:27.889Z,91.66
2017-09-25T07:59:56.299Z,91.47
2017-09-25T08:02:24.662Z,91.46
2017-09-25T08:04:52.991Z,91.34
2017-09-25T08:07:22.120Z,91.09
2017-09-25T08:09:50.462Z,91.04
2017-09-25T08:12:19.163Z,90.74
2017-09-25T08:14:48.269Z,90.61
2017-09-25T08:17:18.867Z,90.29
2017-09-25T08:19:47.287Z,90.30
2017-09-25T08:22:20.116Z,90.10
2017-09-25T08:24:48.791Z,89.86
2017-09-25T08:27:17.157Z,89.67
2017-09-25T08:29:45.476Z,89.19
2017-09-25T08:32:13.822Z,89.23
2017-09-25T08:34:42.166Z,88.93
2017-09-25T08:37:11.270Z,88.81
2017-09-25T08:39:39.617Z,88.57
2017-09-25T08:42:07.966Z,88.45
2017-09-25T08:44:36.314Z,88.15
2017-09-25T08:47:04.647Z,88.01
2017-09-25T08:49:33.149Z,87.69
2017-09-25T08:52:01.473Z,87.37
2017-09-25T08:54:29.816Z,86.94
2017-09-25T08:56:58.903Z,86.36
2017-09-25T08:59:28.444Z,86.18
2017-09-25T09:01:56.797Z,85.96
2017-09-25T09:04:25.910Z,85.25
2017-09-25T09:06:54.258Z,85.17
2017-09-25T09:09:22.582Z,84.87
2017-09-25T09:11:50.940Z,84.62
2017-09-25T09:14:20.049Z,84.50
2017-09-25T09:16:48.395Z,84.67
2017-09-25T09:19:16.723Z,84.34
2017-09-25T09:21:45.070Z,84.22
2017-09-25T09:24:14.199Z,83.95
2017-09-25T09:26:42.531Z,83.71
2017-09-25T09:29:10.884Z,83.10
2017-09-25T09:31:39.220Z,82.80
2017-09-25T09:34:07.603Z,82.96
2017-09-25T09:36:35.966Z,82.81
2017-09-25T09:39:05.074Z,82.58
2017-09-25T09:41:33.421Z,82.25
2017-09-25T09:44:01.759Z,82.51
2017-09-25T09:46:30.220Z,82.54
2017-09-25T09:48:58.552Z,82.17
2017-09-25T09:51:26.935Z,81.82
2017-09-25T09:53:55.299Z,81.91
2017-09-25T09:56:23.642Z,81.99
2017-09-25T09:58:52.001Z,81.74
2017-09-25T10:01:21.144Z,82.67
2017-09-25T10:03:49.482Z,82.38
2017-09-25T10:06:17.846Z,82.42
2017-09-25T10:08:46.167Z,82.27
2017-09-25T10:11:14.519Z,82.41
2017-09-25T10:13:43.624Z,82.53
2017-09-25T10:16:12.296Z,83.50
2017-09-25T10:18:41.227Z,83.18
2017-09-25T10:21:09.561Z,82.53
2017-09-25T10:23:38.687Z,81.33
2017-09-25T10:26:07.016Z,81.62
2017-09-25T10:28:35.370Z,81.54
2017-09-25T10:31:03.715Z,82.05
2017-09-25T10:33:32.500Z,81.66
2017-09-25T10:36:01.604Z,80.77
2017-09-25T10:38:29.989Z,80.97
2017-09-25T10:40:58.326Z,79.93
2017-09-25T10:43:26.658Z,79.34
2017-09-25T10:45:54.999Z,79.32
2017-09-25T10:48:23.352Z,79.37
2017-09-25T10:50:51.712Z,78.66
2017-09-25T10:53:20.057Z,77.17
2017-09-25T10:55:49.156Z,76.70
2017-09-25T10:58:17.495Z,77.25
2017-09-25T11:00:45.811Z,77.28
2017-09-25T11:03:15.219Z,76.39
2017-09-25T11:05:43.564Z,75.82
2017-09-25T11:08:11.896Z,73.50
2017-09-25T11:10:41.186Z,74.00
2017-09-25T11:13:09.513Z,73.65
2017-09-25T11:15:37.891Z,72.83
2017-09-25T11:18:06.208Z,72.22
2017-09-25T11:20:34.554Z,71.62
2017-09-25T11:23:02.905Z,72.65
2017-09-25T11:25:31.217Z,72.60
2017-09-25T11:27:59.563Z,73.25
2017-09-25T11:30:27.889Z,73.27
2017-09-25T11:32:57.302Z,74.14
2017-09-25T11:35:25.624Z,73.57
2017-09-25T11:37:53.943Z,72.56
2017-09-25T11:40:22.305Z,73.40
2017-09-25T11:42:50.676Z,73.08
2017-09-25T11:45:19.058Z,72.87
2017-09-25T11:47:47.396Z,72.76
2017-09-25T11:50:16.275Z,72.47
2017-09-25T11:52:44.612Z,71.82
2017-09-25T11:55:12.928Z,71.72
2017-09-25T11:57:42.808Z,70.59
2017-09-25T12:00:11.154Z,70.96
2017-09-25T12:02:39.500Z,70.63
2017-09-25T12:05:07.826Z,70.58
2017-09-25T12:07:36.169Z,69.97
2017-09-25T12:10:04.500Z,71.37
2017-09-25T12:12:32.872Z,70.83
2017-09-25T12:15:01.216Z,71.53
2017-09-25T12:17:29.541Z,69.23
2017-09-25T12:19:57.886Z,68.35
2017-09-25T12:22:26.238Z,68.52
2017-09-25T12:24:55.358Z,68.51
2017-09-25T12:27:23.696Z,67.26
2017-09-25T12:29:52.052Z,67.19
2017-09-25T12:32:20.510Z,67.42
2017-09-25T12:34:48.848Z,67.01
2017-09-25T12:37:17.950Z,66.92
2017-09-25T12:39:46.306Z,66.70
2017-09-25T12:42:14.692Z,66.78
2017-09-25T12:44:43.045Z,67.73
2017-09-25T12:47:11.387Z,68.13
2017-09-25T12:49:39.724Z,68.32
2017-09-25T12:52:08.055Z,69.12
2017-09-25T12:54:36.812Z,69.49
2017-09-25T12:57:05.900Z,67.84
2017-09-25T12:59:34.267Z,66.46
2017-09-25T13:02:02.597Z,65.81
2017-09-25T13:04:30.947Z,66.03
2017-09-25T13:07:00.048Z,65.17
2017-09-25T13:09:28.381Z,66.23
2017-09-25T13:11:56.740Z,66.91
2017-09-25T13:14:25.061Z,66.75
2017-09-25T13:16:55.710Z,65.91
2017-09-25T13:19:24.037Z,65.91
2017-09-25T13:21:52.365Z,65.06
2017-09-25T13:24:21.473Z,64.18
2017-09-25T13:26:50.551Z,62.60
2017-09-25T13:29:18.894Z,62.86
2017-09-25T13:31:47.206Z,64.36
2017-09-25T13:34:15.893Z,65.38
2017-09-25T13:36:46.757Z,64.53
2017-09-25T13:39:15.274Z,61.78
2017-09-25T13:41:43.675Z,62.42
2017-09-25T13:44:12.031Z,62.77
2017-09-25T13:46:40.397Z,64.06
2017-09-25T13:49:09.238Z,64.06
2017-09-25T13:51:37.949Z,62.63
2017-09-25T13:54:07.225Z,63.52
2017-09-25T13:56:35.617Z,62.00
2017-09-25T14:04:12.075Z,59.93
2017-09-25T14:06:40.407Z,61.49
2017-09-25T14:09:09.565Z,61.32
2017-09-25T14:11:37.886Z,61.57
2017-09-25T14:14:06.995Z,61.63
2017-09-25T14:16:36.087Z,61.04
2017-09-25T14:19:05.493Z,62.81
2017-09-25T14:21:33.815Z,61.33
2017-09-25T14:24:02.154Z,60.17
2017-09-25T14:26:31.253Z,60.48
2017-09-25T14:28:59.596Z,61.20
2017-09-25T14:31:27.935Z,61.32
2017-09-25T14:33:56.265Z,62.42
2017-09-25T14:36:24.715Z,63.49
2017-09-25T14:38:58.719Z,63.86
2017-09-25T14:41:27.363Z,63.79
2017-09-25T14:43:55.705Z,62.31
2017-09-25T14:46:24.063Z,63.18
2017-09-25T14:48:52.576Z,63.13
2017-09-25T14:51:21.001Z,63.39
2017-09-25T14:53:49.375Z,62.85
2017-09-25T14:56:17.714Z,62.70
2017-09-25T14:58:47.523Z,62.17
2017-09-25T15:01:16.006Z,63.18
2017-09-25T15:03:44.405Z,60.81
2017-09-25T15:06:12.749Z,59.54
2017-09-25T15:08:41.078Z,59.92
2017-09-25T15:11:09.428Z,59.57
2017-09-25T15:13:37.837Z,58.23
2017-09-25T15:16:06.156Z,57.27
2017-09-25T15:18:34.526Z,57.14
2017-09-25T15:21:02.856Z,56.62
2017-09-25T15:23:31.208Z,55.06
2017-09-25T15:25:59.973Z,55.34
2017-09-25T15:28:28.319Z,54.12
2017-09-25T15:30:57.493Z,55.26
2017-09-25T15:33:25.841Z,56.67
2017-09-25T15:35:54.214Z,57.12
2017-09-25T15:38:22.543Z,57.04
2017-09-25T15:40:51.167Z,58.15
2017-09-25T15:43:19.506Z,57.99
2017-09-25T15:45:47.905Z,57.39
2017-09-25T15:48:17.012Z,57.92
2017-09-25T15:50:45.343Z,57.89
2017-09-25T15:53:13.701Z,58.72
2017-09-25T15:55:42.067Z,60.34
2017-09-25T15:58:10.449Z,58.91
2017-09-25T16:00:38.871Z,59.98
2017-09-25T16:03:07.223Z,60.47
2017-09-25T16:05:35.578Z,62.62
2017-09-25T16:08:05.300Z,63.25
2017-09-25T16:10:34.882Z,62.45
2017-09-25T16:13:03.980Z,64.01
2017-09-25T16:15:32.309Z,64.86
2017-09-25T16:18:00.678Z,65.84
2017-09-25T16:20:29.003Z,64.94
2017-09-25T16:22:58.128Z,66.64
2017-09-25T16:25:26.531Z,65.37
2017-09-25T16:27:55.258Z,65.91
2017-09-25T16:30:23.998Z,66.70
2017-09-25T16:32:53.136Z,67.56
2017-09-25T16:35:21.659Z,67.32
2017-09-25T16:37:50.059Z,67.79
2017-09-25T16:40:18.818Z,67.67
2017-09-25T16:42:47.145Z,68.34
2017-09-25T16:45:15.460Z,68.21
2017-09-25T16:47:43.811Z,68.88
2017-09-25T16:50:12.132Z,68.61
2017-09-25T16:52:41.277Z,68.93
2017-09-25T16:55:09.597Z,69.55
2017-09-25T16:57:39.011Z,70.23
2017-09-25T17:00:08.119Z,70.34
2017-09-25T17:02:43.604Z,70.40
2017-09-25T17:05:12.383Z,70.63
2017-09-25T17:07:40.749Z,71.00
2017-09-25T17:10:17.608Z,71.40
2017-09-25T17:12:47.481Z,71.48
2017-09-25T17:15:16.110Z,71.58
2017-09-25T17:17:45.316Z,71.79
2017-09-25T17:20:14.429Z,72.30
2017-09-25T17:22:42.783Z,72.89
2017-09-25T17:25:11.946Z,73.11
2017-09-25T17:27:40.275Z,73.56
2017-09-25T17:30:08.607Z,73.96
2017-09-25T17:32:37.234Z,74.30
2017-09-25T17:35:06.417Z,74.57
2017-09-25T17:37:35.552Z,74.80
2017-09-25T17:40:03.913Z,75.31
2017-09-25T17:42:32.254Z,75.85
2017-09-25T17:45:00.639Z,76.08
2017-09-25T17:47:29.032Z,76.17
2017-09-25T17:49:58.166Z,76.31
2017-09-25T17:52:26.515Z,76.44
2017-09-25T17:54:55.621Z,76.65
2017-09-25T17:57:24.768Z,77.00
2017-09-25T17:59:53.130Z,76.89
2017-09-25T18:02:21.498Z,76.85
2017-09-25T18:04:50.378Z,76.74
2017-09-25T18:07:19.035Z,77.22
2017-09-25T18:09:47.375Z,77.67
2017-09-25T18:12:15.777Z,77.59
2017-09-25T18:14:44.194Z,78.24
2017-09-25T18:17:12.584Z,78.26
2017-09-25T18:19:41.098Z,78.52
2017-09-25T18:22:09.510Z,78.95
2017-09-25T18:24:38.189Z,78.82
2017-09-25T18:27:06.549Z,79.14
2017-09-25T18:29:34.883Z,78.98
2017-09-25T18:32:04.034Z,79.39
2017-09-25T18:34:32.364Z,79.79
2017-09-25T18:37:01.508Z,80.01
2017-09-25T18:39:30.904Z,79.83
2017-09-25T18:41:59.521Z,79.71
2017-09-25T18:44:27.859Z,80.00
2017-09-25T18:46:56.236Z,80.43
2017-09-25T18:49:24.614Z,80.38
2017-09-25T18:51:52.947Z,80.53
2017-09-25T18:54:21.314Z,81.04
2017-09-25T18:56:50.174Z,81.40
2017-09-25T18:59:18.805Z,81.27
2017-09-25T19:01:47.151Z,80.86
2017-09-25T19:04:15.520Z,81.21
2017-09-25T19:06:43.893Z,81.12
2017-09-25T19:09:12.242Z,81.20
2017-09-25T19:11:41.383Z,82.09
2017-09-25T19:14:09.725Z,82.25
2017-09-25T19:16:38.864Z,82.17
2017-09-25T19:19:07.266Z,82.16
2017-09-25T19:21:35.616Z,82.17
2017-09-25T19:24:04.010Z,82.19
2017-09-25T19:26:32.420Z,82.02
2017-09-25T19:29:01.103Z,82.17
2017-09-25T19:31:30.133Z,82.92
2017-09-25T19:33:59.958Z,83.02
2017-09-25T19:36:29.987Z,83.11
2017-09-25T19:39:04.745Z,83.14
2017-09-25T19:41:40.390Z,82.96
2017-09-25T19:44:13.382Z,82.84
2017-09-25T19:46:42.224Z,82.76
2017-09-25T19:49:10.609Z,83.68
2017-09-25T19:51:38.955Z,83.10
2017-09-25T19:54:13.880Z,82.79
2017-09-25T19:56:57.895Z,82.62
2017-09-25T19:59:26.271Z,83.62
2017-09-25T20:01:54.627Z,83.54
2017-09-25T20:04:22.976Z,83.28
2017-09-25T20:06:52.116Z,83.93
2017-09-25T20:09:20.463Z,84.52
2017-09-25T20:11:49.682Z,84.83
2017-09-25T20:17:34.060Z,84.21
2017-09-25T20:20:03.216Z,84.50
2017-09-25T20:22:36.679Z,84.36
2017-09-25T20:25:05.398Z,84.69
2017-09-25T20:27:34.918Z,84.25
2017-09-25T20:30:07.883Z,84.66
2017-09-25T20:32:37.461Z,84.98
2017-09-25T20:35:08.374Z,85.10
2017-09-25T20:37:38.577Z,85.03
2017-09-25T20:40:07.977Z,84.85
2017-09-25T20:42:46.251Z,84.79
2017-09-25T20:45:22.767Z,84.55
2017-09-25T20:48:03.096Z,84.65
2017-09-25T20:50:37.724Z,84.94
2017-09-25T20:53:11.103Z,85.22
2017-09-25T20:55:43.528Z,85.56
2017-09-25T20:58:16.373Z,85.11
2017-09-25T21:00:49.730Z,85.12
2017-09-25T21:03:23.041Z,85.28
2017-09-25T21:05:56.727Z,85.26
2017-09-25T21:08:30.005Z,85.45
2017-09-25T21:10:59.251Z,85.87
2017-09-25T21:13:28.507Z,85.78
2017-09-25T21:15:57.586Z,85.57
2017-09-25T21:18:25.924Z,85.80
2017-09-25T21:20:54.340Z,86.06
2017-09-25T21:23:22.689Z,86.32
2017-09-25T21:25:51.015Z,86.02
2017-09-25T21:28:19.356Z,85.65
2017-09-25T21:30:47.967Z,86.18
2017-09-25T21:33:16.314Z,86.59
2017-09-25T21:35:44.650Z,86.75
2017-09-25T21:38:13.739Z,87.14
2017-09-25T21:40:43.110Z,86.64
2017-09-25T21:43:11.436Z,86.79
2017-09-25T21:45:40.556Z,86.48
2017-09-25T21:48:08.898Z,86.36
2017-09-25T21:50:38.008Z,86.21
2017-09-25T21:53:07.111Z,86.58
2017-09-25T21:55:38.126Z,86.98
2017-09-25T21:58:15.531Z,86.92
2017-09-25T22:00:44.852Z,86.73
2017-09-25T22:03:13.207Z,86.80
2017-09-25T22:05:42.355Z,87.10
2017-09-25T22:08:11.575Z,86.56
2017-09-25T22:10:39.912Z,86.53
2017-09-25T22:13:08.250Z,86.77
2017-09-25T22:15:36.664Z,87.20
2017-09-25T22:18:05.987Z,87.27
2017-09-25T22:20:34.351Z,86.81
2017-09-25T22:23:02.688Z,86.39
2017-09-25T22:25:31.081Z,86.85
2017-09-25T22:27:59.487Z,86.96
2017-09-25T22:30:27.817Z,87.21
2017-09-25T22:32:56.151Z,86.73
2017-09-25T22:35:24.474Z,87.42
2017-09-25T22:37:52.829Z,86.99
2017-09-25T22:40:21.169Z,87.13
2017-09-25T22:42:49.508Z,87.20
2017-09-25T22:45:17.860Z,87.35
2017-09-25T22:47:46.208Z,86.73
2017-09-25T22:50:15.342Z,87.13
2017-09-25T22:52:43.665Z,87.23
2017-09-25T22:55:12.006Z,86.86
2017-09-25T22:57:40.353Z,86.45
2017-09-25T23:00:08.672Z,86.71
2017-09-25T23:02:37.028Z,86.89
2017-09-25T23:08:20.230Z,86.55
2017-09-25T23:10:48.569Z,86.11
2017-09-25T23:13:17.684Z,85.93
2017-09-25T23:15:46.034Z,85.95
2017-09-25T23:18:14.380Z,85.96
2017-09-25T23:20:43.469Z,86.29
2017-09-25T23:23:11.803Z,86.12
2017-09-25T23:25:40.154Z,86.37
2017-09-25T23:28:08.475Z,86.46
2017-09-25T23:30:55.492Z,86.61
2017-09-25T23:33:23.827Z,86.23
2017-09-25T23:35:52.266Z,86.30
2017-09-25T23:38:20.784Z,86.51
2017-09-25T23:40:49.867Z,86.48
2017-09-25T23:43:18.209Z,86.40
2017-09-25T23:45:46.532Z,85.98
2017-09-25T23:48:15.645Z,86.18
2017-09-25T23:50:43.991Z,85.93
2017-09-25T23:53:12.332Z,85.73
2017-09-25T23:55:40.667Z,85.83
2017-09-25T23:58:09.769Z,86.20
